Mongaup Valley, NY

7:58 AM EDT on August 24, 2016 (GMT -0400)
Sullivan County International

Weather History for KMSV - November, 2013

Change the Weather History Date:

Tuesday, November 5, 2013

  Actual Average Record
Temperature  
Mean Temperature 37 °F -  
Max Temperature 48 °F 47 °F 69 °F (2005)
Min Temperature 26 °F 32 °F 24 °F (2006)
Degree Days  
Heating Degree Days 28    
Moisture  
Dew Point 25 °F    
Average Humidity 59    
Maximum Humidity 81    
Minimum Humidity 50    
Precipitation  
Precipitation 0.00 in - - ()
Sea Level Pressure  
Sea Level Pressure 30.56 in    
Wind  
Wind Speed 5 mph (SE)    
Max Wind Speed 10 mph    
Max Gust Speed -    
Visibility 10 miles    
Events      
Averages and records for this station are not official NWS values.
T = Trace of Precipitation, MM = Missing Value Source: NWS Daily Summary

Daily Weather History Graph

Daily Weather History Graph

Search for Another Location

Airport or City:

Trip Planner

Search our weather history database for the weather conditions in past years. The results will help you decide how hot, cold, wet, or windy it might be!

Date:

Astronomy

Nov. 05, 2013 Rise Set
Actual Time 6:36 AM EST 4:48 PM EST
Civil Twilight 6:07 AM EST 5:17 PM EST
Nautical Twilight 5:34 AM EST 5:50 PM EST
Astronomical Twilight 5:01 AM EST 6:23 PM EST
Moon 8:50 AM EST (11/5) 6:46 PM EST (11/5)
Length of Visible Light 11h 10m
Length of Day
10h 12m
Waxing Crescent, 6% of the Moon is Illuminated
Nov 5
Waxing Crescent
Nov 10
First Quarter
Nov 17
Full
Nov 25
Last Quarter
Dec 2
New

Hourly Weather History & Observations

Time (EST) Temp. Windchill Dew Point Humidity Pressure Visibility Wind Dir Wind Speed Gust Speed Precip Events Conditions
12:15 AM 28.4 °F 23.3 °F 12.2 °F 51% 30.63 in 10.0 mi ENE 4.6 mph - N/A   Clear
12:35 AM 28.4 °F 23.3 °F 14.0 °F 55% 30.62 in 10.0 mi East 4.6 mph - N/A   Clear
12:55 AM 26.6 °F 19.1 °F 14.0 °F 59% 30.60 in 10.0 mi East 6.9 mph - N/A   Clear
1:15 AM 26.6 °F 21.2 °F 14.0 °F 59% 30.59 in 10.0 mi East 4.6 mph - N/A   Clear
1:35 AM 28.4 °F 24.6 °F 15.8 °F 59% 30.60 in 10.0 mi East 3.5 mph - N/A   Clear
1:55 AM 28.4 °F 23.3 °F 15.8 °F 59% 30.60 in 10.0 mi ENE 4.6 mph - N/A   Clear
2:15 AM 28.4 °F 24.6 °F 15.8 °F 59% 30.59 in 10.0 mi ENE 3.5 mph - N/A   Clear
2:35 AM 28.4 °F 23.3 °F 15.8 °F 59% 30.59 in 10.0 mi East 4.6 mph - N/A   Clear
2:55 AM 28.4 °F 24.6 °F 15.8 °F 59% 30.59 in 10.0 mi NE 3.5 mph - N/A   Clear
3:15 AM 30.2 °F 25.4 °F 15.8 °F 55% 30.60 in 10.0 mi NE 4.6 mph - N/A   Clear
3:35 AM 30.2 °F 26.7 °F 15.8 °F 55% 30.61 in 10.0 mi NE 3.5 mph - N/A   Clear
3:55 AM 30.2 °F 26.7 °F 15.8 °F 55% 30.61 in 10.0 mi NE 3.5 mph - N/A   Clear
4:15 AM 30.2 °F 25.4 °F 15.8 °F 55% 30.60 in 10.0 mi East 4.6 mph - N/A   Clear
4:35 AM 28.4 °F - 15.8 °F 59% 30.60 in 10.0 mi Calm Calm - N/A   Scattered Clouds
4:55 AM 30.2 °F 26.7 °F 15.8 °F 55% 30.61 in 10.0 mi ENE 3.5 mph - N/A   Overcast
5:15 AM 30.2 °F 26.7 °F 17.6 °F 60% 30.61 in 10.0 mi East 3.5 mph - N/A   Overcast
5:35 AM 30.2 °F 25.4 °F 17.6 °F 60% 30.60 in 10.0 mi East 4.6 mph - N/A   Overcast
5:55 AM 30.2 °F 25.4 °F 17.6 °F 60% 30.60 in 10.0 mi East 4.6 mph - N/A   Overcast
6:15 AM 30.2 °F 25.4 °F 17.6 °F 60% 30.60 in 10.0 mi East 4.6 mph - N/A   Overcast
6:35 AM 30.2 °F 25.4 °F 17.6 °F 60% 30.60 in 10.0 mi East 4.6 mph - N/A   Scattered Clouds
6:55 AM 30.2 °F 25.4 °F 19.4 °F 64% 30.60 in 10.0 mi East 4.6 mph - N/A   Scattered Clouds
7:15 AM 30.2 °F 25.4 °F 19.4 °F 64% 30.60 in 10.0 mi East 4.6 mph - N/A   Mostly Cloudy
7:35 AM 32.0 °F 27.5 °F 19.4 °F 60% 30.61 in 10.0 mi East 4.6 mph - N/A   Mostly Cloudy
7:55 AM 33.8 °F 29.6 °F 21.2 °F 60% 30.62 in 10.0 mi ENE 4.6 mph - N/A   Overcast
8:15 AM 33.8 °F 28.6 °F 21.2 °F 60% 30.61 in 10.0 mi East 5.8 mph - N/A   Mostly Cloudy
8:35 AM 33.8 °F 29.6 °F 21.2 °F 60% 30.62 in 10.0 mi East 4.6 mph - N/A   Mostly Cloudy
8:55 AM 35.6 °F 31.7 °F 23.0 °F 60% 30.62 in 10.0 mi ESE 4.6 mph - N/A   Mostly Cloudy
9:15 AM 37.4 °F 32.8 °F 24.8 °F 60% 30.62 in 10.0 mi East 5.8 mph - N/A   Overcast
9:35 AM 37.4 °F 33.8 °F 26.6 °F 65% 30.62 in 10.0 mi SE 4.6 mph - N/A   Overcast
9:55 AM 39.2 °F 37.0 °F 26.6 °F 61% 30.61 in 10.0 mi SE 3.5 mph - N/A   Overcast
10:15 AM 39.2 °F 35.9 °F 26.6 °F 61% 30.62 in 10.0 mi SSE 4.6 mph - N/A   Overcast
10:35 AM 42.8 °F 38.6 °F 28.4 °F 57% 30.62 in 10.0 mi South 6.9 mph - N/A   Overcast
10:55 AM 42.8 °F 37.0 °F 30.2 °F 61% 30.62 in 10.0 mi South 10.4 mph - N/A   Overcast
11:15 AM 44.6 °F 39.7 °F 30.2 °F 57% 30.61 in 10.0 mi SSE 9.2 mph - N/A   Overcast
11:35 AM 44.6 °F 39.7 °F 30.2 °F 57% 30.60 in 10.0 mi South 9.2 mph - N/A   Mostly Cloudy
11:55 AM 46.4 °F 42.9 °F 32.0 °F 57% 30.58 in 10.0 mi South 6.9 mph - N/A   Mostly Cloudy
12:15 PM 46.4 °F 42.4 °F 30.2 °F 53% 30.58 in 10.0 mi West 8.1 mph - N/A   Mostly Cloudy
12:35 PM 46.4 °F 42.4 °F 30.2 °F 53% 30.58 in 10.0 mi South 8.1 mph - N/A   Mostly Cloudy
12:55 PM 46.4 °F 42.4 °F 30.2 °F 53% 30.56 in 10.0 mi South 8.1 mph - N/A   Mostly Cloudy
1:15 PM 48.2 °F - 30.2 °F 50% 30.55 in 10.0 mi South 10.4 mph - N/A   Mostly Cloudy
1:35 PM 46.4 °F 43.5 °F 30.2 °F 53% 30.55 in 10.0 mi South 5.8 mph - N/A   Mostly Cloudy
1:55 PM 46.4 °F 42.9 °F 32.0 °F 57% 30.54 in 10.0 mi SSW 6.9 mph - N/A   Mostly Cloudy
2:15 PM 46.4 °F 42.4 °F 30.2 °F 53% 30.54 in 10.0 mi South 8.1 mph - N/A   Scattered Clouds
2:35 PM 46.4 °F 42.9 °F 30.2 °F 53% 30.54 in 10.0 mi South 6.9 mph - N/A   Clear
2:55 PM 46.4 °F 42.4 °F 30.2 °F 53% 30.53 in 10.0 mi South 8.1 mph - N/A   Clear
3:15 PM 46.4 °F 43.5 °F 30.2 °F 53% 30.52 in 10.0 mi South 5.8 mph - N/A   Clear
3:35 PM 46.4 °F 43.5 °F 32.0 °F 57% 30.53 in 10.0 mi South 5.8 mph - N/A   Clear
3:55 PM 46.4 °F 44.3 °F 32.0 °F 57% 30.53 in 10.0 mi South 4.6 mph - N/A   Clear
4:15 PM 46.4 °F - 30.2 °F 53% 30.53 in 10.0 mi Calm Calm - N/A   Clear
4:35 PM 46.4 °F 45.2 °F 30.2 °F 53% 30.51 in 10.0 mi SSE 3.5 mph - N/A   Clear
4:55 PM 44.6 °F - 30.2 °F 57% 30.52 in 10.0 mi Calm Calm - N/A   Clear
5:15 PM 44.6 °F - 30.2 °F 57% 30.52 in 10.0 mi Calm Calm - N/A   Clear
5:35 PM 44.6 °F - 30.2 °F 57% 30.52 in 10.0 mi Calm Calm - N/A   Clear
5:55 PM 44.6 °F 43.1 °F 30.2 °F 57% 30.53 in 10.0 mi SSW 3.5 mph - N/A   Clear
6:15 PM 44.6 °F 42.2 °F 30.2 °F 57% 30.53 in 10.0 mi SSW 4.6 mph - N/A   Clear
6:35 PM 44.6 °F 42.2 °F 32.0 °F 61% 30.53 in 10.0 mi SSW 4.6 mph - N/A   Clear
6:55 PM 44.6 °F 43.1 °F 30.2 °F 57% 30.53 in 10.0 mi SSW 3.5 mph - N/A   Clear
7:15 PM 44.6 °F 43.1 °F 30.2 °F 57% 30.52 in 10.0 mi South 3.5 mph - N/A   Clear
7:35 PM 44.6 °F 43.1 °F 30.2 °F 57% 30.52 in 10.0 mi South 3.5 mph - N/A   Clear
7:55 PM 42.8 °F - 32.0 °F 66% 30.52 in 10.0 mi Calm Calm - N/A   Clear
8:15 PM 42.8 °F - 30.2 °F 61% 30.51 in 10.0 mi Calm Calm - N/A   Clear
8:35 PM 41.0 °F 38.0 °F 30.2 °F 65% 30.51 in 10.0 mi ESE 4.6 mph - N/A   Clear
8:55 PM 41.0 °F - 32.0 °F 70% 30.51 in 10.0 mi Calm Calm - N/A   Clear
9:15 PM 41.0 °F 39.0 °F 30.2 °F 65% 30.50 in 10.0 mi East 3.5 mph - N/A   Clear
9:35 PM 42.8 °F - 30.2 °F 61% 30.50 in 10.0 mi Calm Calm - N/A   Clear
9:55 PM 41.0 °F 39.0 °F 30.2 °F 65% 30.49 in 10.0 mi SE 3.5 mph - N/A   Clear
10:15 PM 39.2 °F - 32.0 °F 75% 30.49 in 10.0 mi Calm Calm - N/A   Clear
10:35 PM 39.2 °F - 30.2 °F 70% 30.49 in 10.0 mi Calm Calm - N/A   Scattered Clouds
10:55 PM 39.2 °F 37.0 °F 32.0 °F 75% 30.48 in 10.0 mi ESE 3.5 mph - N/A   Mostly Cloudy
11:15 PM 39.2 °F 35.9 °F 32.0 °F 75% 30.46 in 10.0 mi SE 4.6 mph - N/A   Scattered Clouds
11:35 PM 39.2 °F 35.9 °F 33.8 °F 81% 30.48 in 10.0 mi South 4.6 mph - N/A   Partly Cloudy
11:55 PM 42.8 °F 40.1 °F 33.8 °F 70% 30.48 in 10.0 mi SSE 4.6 mph - N/A   Mostly Cloudy